createdAt,value
2023-07-24T00:00:57.611Z,71.5
2023-07-24T00:06:04.150Z,72.5
2023-07-24T00:11:10.724Z,74
2023-07-24T00:16:17.283Z,75
2023-07-24T00:21:23.848Z,75.5
2023-07-24T00:26:30.426Z,75.5
2023-07-24T00:31:36.999Z,76.5
2023-07-24T00:36:43.560Z,77
2023-07-24T00:41:50.118Z,77.5
2023-07-24T00:46:56.713Z,77.5
2023-07-24T00:52:02.521Z,78
2023-07-24T00:57:09.131Z,78
2023-07-24T01:02:15.783Z,78
2023-07-24T01:07:22.226Z,79
2023-07-24T01:12:28.787Z,79.5
2023-07-24T01:17:35.347Z,80
2023-07-24T01:22:41.915Z,79.5
2023-07-24T01:27:48.499Z,80
2023-07-24T01:32:55.128Z,79.5
2023-07-24T01:38:01.730Z,79.5
2023-07-24T01:43:08.243Z,79.5
2023-07-24T01:48:14.766Z,80
2023-07-24T01:53:21.387Z,81
2023-07-24T01:58:27.912Z,81.5
2023-07-24T02:03:34.443Z,82
2023-07-24T02:08:41.012Z,82
2023-07-24T02:13:47.590Z,82.5
2023-07-24T02:18:54.152Z,83
2023-07-24T02:23:59.998Z,83
2023-07-24T02:29:06.715Z,84
2023-07-24T02:34:13.141Z,84
2023-07-24T02:39:19.706Z,84.5
2023-07-24T02:44:26.282Z,85
2023-07-24T02:49:32.837Z,85
2023-07-24T02:54:39.409Z,85
2023-07-24T02:59:45.990Z,85
2023-07-24T03:04:52.541Z,85.5
2023-07-24T03:09:59.104Z,85
2023-07-24T03:15:05.681Z,84.5
2023-07-24T03:20:12.229Z,84.5
2023-07-24T03:25:18.817Z,84.5
2023-07-24T03:30:25.372Z,84.5
2023-07-24T03:35:31.216Z,84.5
2023-07-24T03:40:37.785Z,84
2023-07-24T03:45:44.357Z,84
2023-07-24T03:50:50.933Z,83.5
2023-07-24T03:55:57.487Z,83.5
2023-07-24T04:01:04.046Z,83.5
2023-07-24T04:06:10.740Z,83
2023-07-24T04:11:17.198Z,83
2023-07-24T04:16:23.745Z,82.5
2023-07-24T04:21:30.305Z,82.5
2023-07-24T04:26:36.876Z,82.5
2023-07-24T04:31:43.441Z,82.5
2023-07-24T04:36:50.016Z,82.5
2023-07-24T04:41:55.849Z,82.5
2023-07-24T04:47:02.446Z,83
2023-07-24T04:52:09.019Z,83
2023-07-24T04:57:15.559Z,83
2023-07-24T05:02:22.102Z,82
2023-07-24T05:07:28.720Z,80.5
2023-07-24T05:12:35.342Z,79
2023-07-24T05:17:41.828Z,77
2023-07-24T05:22:48.388Z,76.5
2023-07-24T05:27:54.962Z,76.5
2023-07-24T05:33:01.530Z,74.5
2023-07-24T05:38:08.195Z,75
2023-07-24T05:43:14.660Z,74.5
2023-07-24T05:48:21.220Z,72.5
2023-07-24T05:53:27.061Z,72.5
2023-07-24T05:58:33.618Z,73.5
2023-07-24T06:03:40.186Z,74
2023-07-24T06:08:46.751Z,74
2023-07-24T06:13:53.319Z,72.5
2023-07-24T06:19:00.029Z,72
2023-07-24T06:24:06.601Z,71
2023-07-24T06:29:13.039Z,70
2023-07-24T06:34:19.605Z,68.5
2023-07-24T06:39:26.175Z,68
2023-07-24T06:44:32.760Z,67.5
2023-07-24T06:54:45.870Z,63.5
2023-07-24T06:59:51.708Z,63.5
2023-07-24T07:04:58.253Z,62
2023-07-24T07:10:04.822Z,61.5
2023-07-24T07:15:11.476Z,61.5
2023-07-24T07:20:17.956Z,64
2023-07-24T07:25:24.514Z,62
2023-07-24T07:30:31.145Z,65.5
2023-07-24T07:35:37.714Z,65.5
2023-07-24T07:40:44.205Z,66.5
2023-07-24T07:45:50.777Z,67.5
2023-07-24T07:50:57.346Z,66.5
2023-07-24T07:56:03.928Z,65.5
2023-07-24T08:01:10.465Z,61.5
2023-07-24T08:06:16.335Z,61
2023-07-24T08:11:22.864Z,60.5
2023-07-24T08:16:29.422Z,59.5
2023-07-24T08:21:35.990Z,62
2023-07-24T08:26:42.562Z,60.5
2023-07-24T08:31:49.153Z,58
2023-07-24T08:36:55.679Z,59
2023-07-24T08:42:02.244Z,58.5
2023-07-24T08:47:08.912Z,58
2023-07-24T08:52:15.395Z,58
2023-07-24T08:57:22.025Z,56
2023-07-24T09:02:28.514Z,56
2023-07-24T09:07:35.273Z,55.5
2023-07-24T09:12:40.975Z,55
2023-07-24T09:17:47.512Z,54
2023-07-24T09:22:54.043Z,54
2023-07-24T09:28:00.732Z,52
2023-07-24T09:33:06.460Z,49.5
2023-07-24T09:38:13.053Z,51
2023-07-24T09:43:19.570Z,49
2023-07-24T09:48:26.120Z,48
2023-07-24T09:53:32.708Z,47.5
2023-07-24T09:58:39.275Z,47
2023-07-24T10:03:45.846Z,46
2023-07-24T10:08:52.401Z,46
2023-07-24T10:13:59.010Z,46
2023-07-24T10:19:05.524Z,48
2023-07-24T10:24:12.131Z,47.5
2023-07-24T10:29:18.658Z,46.5
2023-07-24T10:34:25.232Z,46
2023-07-24T10:39:31.061Z,45
2023-07-24T10:44:37.628Z,46.5
2023-07-24T10:54:50.791Z,45
2023-07-24T10:59:57.317Z,45.5
2023-07-24T11:05:03.938Z,45.5
2023-07-24T11:10:10.450Z,44
2023-07-24T11:15:17.010Z,43.5
2023-07-24T11:30:36.702Z,45.5
2023-07-24T11:35:43.302Z,46
2023-07-24T11:40:49.165Z,45.5
2023-07-24T11:45:55.707Z,47.5
2023-07-24T11:51:01.554Z,47.5
2023-07-24T11:56:08.208Z,45.5
2023-07-24T12:01:14.696Z,46
2023-07-24T12:11:27.836Z,45
2023-07-24T12:16:34.390Z,45.5
2023-07-24T12:26:47.517Z,42
2023-07-24T12:31:54.166Z,41.5
2023-07-24T12:37:00.638Z,43.5
2023-07-24T12:42:07.218Z,44.5
2023-07-24T12:47:13.090Z,45.5
2023-07-24T12:52:18.922Z,46.5
2023-07-24T12:57:25.520Z,51
2023-07-24T13:02:32.306Z,55
2023-07-24T13:07:38.842Z,57
2023-07-24T13:12:45.362Z,58
2023-07-24T13:17:51.955Z,59
2023-07-24T13:22:58.330Z,60
2023-07-24T13:28:04.902Z,65
2023-07-24T13:33:11.443Z,70.5
2023-07-24T13:38:17.313Z,73
2023-07-24T13:43:23.143Z,73.5
2023-07-24T13:48:29.712Z,72.5
2023-07-24T13:53:36.304Z,69.5
2023-07-24T13:58:42.961Z,69.5
2023-07-24T14:03:49.491Z,70.5
2023-07-24T14:08:55.960Z,72
2023-07-24T14:14:02.615Z,72.5
2023-07-24T14:19:09.113Z,71
2023-07-24T14:24:15.667Z,70
2023-07-24T14:29:22.249Z,69
2023-07-24T14:34:28.156Z,66
2023-07-24T14:39:33.944Z,58
2023-07-24T14:44:40.500Z,53.5
2023-07-24T14:49:47.079Z,48.5
2023-07-24T14:54:53.653Z,48
2023-07-24T15:00:00.452Z,47.5
2023-07-24T15:05:06.772Z,45
2023-07-24T15:10:13.350Z,45
2023-07-24T15:15:20.037Z,48.5
2023-07-24T15:20:26.579Z,48.5
2023-07-24T15:25:33.136Z,43
2023-07-24T15:30:39.613Z,43
2023-07-24T15:40:52.749Z,51.5
2023-07-24T15:45:59.321Z,50.5
2023-07-24T15:51:05.930Z,49.5
2023-07-24T16:01:18.483Z,52
2023-07-24T16:06:24.187Z,51.5
2023-07-24T16:11:29.999Z,52.5
2023-07-24T16:16:36.676Z,54.5
2023-07-24T16:21:43.111Z,54.5
2023-07-24T16:26:49.713Z,55
2023-07-24T16:31:56.304Z,56.5
2023-07-24T16:37:02.841Z,57
2023-07-24T16:42:09.379Z,59
2023-07-24T16:47:15.960Z,60
2023-07-24T16:52:22.521Z,62
2023-07-24T16:57:28.395Z,70
2023-07-24T17:02:34.215Z,77
2023-07-24T17:07:40.929Z,90
2023-07-24T17:12:47.341Z,99.5
